createdAt,value
2023-04-19T00:02:10.536Z,3.83
2023-04-19T00:04:40.432Z,3.70
2023-04-19T00:07:10.266Z,3.90
2023-04-19T00:09:39.984Z,3.10
2023-04-19T00:12:09.617Z,3.80
2023-04-19T00:14:39.315Z,3.63
2023-04-19T00:17:09.138Z,4.50
2023-04-19T00:19:39.261Z,3.95
2023-04-19T00:22:08.953Z,3.70
2023-04-19T00:24:38.648Z,3.90
2023-04-19T00:27:08.413Z,4.13
2023-04-19T00:29:40.605Z,5.07
2023-04-19T00:32:11.109Z,4.20
2023-04-19T00:34:40.796Z,3.97
2023-04-19T00:37:14.445Z,3.65
2023-04-19T00:39:44.203Z,3.92
2023-04-19T00:42:13.841Z,3.90
2023-04-19T00:44:44.167Z,3.40
2023-04-19T00:47:13.879Z,3.22
2023-04-19T00:49:43.572Z,4.22
2023-04-19T00:52:14.324Z,3.25
2023-04-19T00:54:44.029Z,3.45
2023-04-19T00:57:16.356Z,3.60
2023-04-19T00:59:46.232Z,3.70
2023-04-19T01:02:16.830Z,3.53
2023-04-19T01:04:46.974Z,3.10
2023-04-19T01:07:17.144Z,3.97
2023-04-19T01:09:47.016Z,3.42
2023-04-19T01:12:16.738Z,2.78
2023-04-19T01:14:47.309Z,2.60
2023-04-19T01:17:17.016Z,2.95
2023-04-19T01:19:46.706Z,2.90
2023-04-19T01:22:25.237Z,2.70
2023-04-19T01:24:54.849Z,2.50
2023-04-19T01:27:25.419Z,2.88
2023-04-19T01:29:55.089Z,2.42
2023-04-19T01:32:24.827Z,2.50
2023-04-19T01:34:54.978Z,4.35
2023-04-19T01:37:24.755Z,2.60
2023-04-19T01:39:54.452Z,3.03
2023-04-19T01:42:24.405Z,2.65
2023-04-19T01:44:54.110Z,2.47
2023-04-19T01:47:24.555Z,2.65
2023-04-19T01:49:54.218Z,2.88
2023-04-19T01:52:23.939Z,2.97
2023-04-19T01:54:53.681Z,3.40
2023-04-19T01:57:23.388Z,2.78
2023-04-19T01:59:55.492Z,3.22
2023-04-19T02:02:25.352Z,2.55
2023-04-19T02:04:55.040Z,2.60
2023-04-19T02:07:24.753Z,2.60
2023-04-19T02:09:54.480Z,2.97
2023-04-19T02:12:24.977Z,2.25
2023-04-19T02:14:54.744Z,2.42
2023-04-19T02:17:24.471Z,2.47
2023-04-19T02:19:54.761Z,2.30
2023-04-19T02:22:24.522Z,2.35
2023-04-19T02:24:54.235Z,2.20
2023-04-19T02:27:23.996Z,2.38
2023-04-19T02:29:53.677Z,2.22
2023-04-19T02:32:39.411Z,2.10
2023-04-19T02:37:48.673Z,2.20
2023-04-19T02:40:18.374Z,1.90
2023-04-19T02:42:47.989Z,2.20
2023-04-19T02:45:17.777Z,2.25
2023-04-19T02:47:48.289Z,1.77
2023-04-19T02:50:18.912Z,1.92
2023-04-19T02:52:55.232Z,1.70
2023-04-19T02:55:24.959Z,2.00
2023-04-19T02:57:54.695Z,1.98
2023-04-19T03:00:24.354Z,2.10
2023-04-19T03:02:54.261Z,1.80
2023-04-19T03:05:24.488Z,1.80
2023-04-19T03:07:54.227Z,1.95
2023-04-19T03:10:27.802Z,1.90
2023-04-19T03:12:57.470Z,1.90
2023-04-19T03:15:27.128Z,2.00
2023-04-19T03:17:56.945Z,1.83
2023-04-19T03:20:27.010Z,1.88
2023-04-19T03:22:56.657Z,2.30
2023-04-19T03:25:26.375Z,1.92
2023-04-19T03:27:56.228Z,2.60
2023-04-19T03:30:25.875Z,1.80
2023-04-19T03:32:55.610Z,1.80
2023-04-19T03:35:27.806Z,1.90
2023-04-19T03:37:57.484Z,1.90
2023-04-19T03:40:27.192Z,1.90
2023-04-19T03:42:56.999Z,2.15
2023-04-19T03:45:26.834Z,1.85
2023-04-19T03:47:56.613Z,1.90
2023-04-19T03:50:26.340Z,2.75
2023-04-19T03:52:56.357Z,2.00
2023-04-19T03:55:25.977Z,1.70
2023-04-19T03:57:55.664Z,1.73
2023-04-19T04:00:29.075Z,1.70
2023-04-19T04:02:58.970Z,1.80
2023-04-19T04:05:30.738Z,1.85
2023-04-19T04:08:00.625Z,2.00
2023-04-19T04:10:30.241Z,1.73
2023-04-19T04:12:59.887Z,1.85
2023-04-19T04:15:29.588Z,1.73
2023-04-19T04:17:59.297Z,2.13
2023-04-19T04:20:29.034Z,2.10
2023-04-19T04:22:58.736Z,1.90
2023-04-19T04:25:30.448Z,1.92
2023-04-19T04:28:00.132Z,1.90
2023-04-19T04:30:30.265Z,2.30
2023-04-19T04:33:00.528Z,1.85
2023-04-19T04:35:31.498Z,2.08
2023-04-19T04:38:11.059Z,1.67
2023-04-19T04:40:57.305Z,1.85
2023-04-19T04:43:30.539Z,1.90
2023-04-19T04:46:03.253Z,1.98
2023-04-19T04:48:33.113Z,2.10
2023-04-19T04:51:02.809Z,1.90
2023-04-19T04:53:32.539Z,1.90
2023-04-19T04:56:02.260Z,1.98
2023-04-19T04:58:32.041Z,1.90
2023-04-19T05:01:01.820Z,1.90
2023-04-19T05:03:34.782Z,2.10
2023-04-19T05:06:07.891Z,2.40
2023-04-19T05:08:37.659Z,2.33
2023-04-19T05:11:07.406Z,1.90
2023-04-19T05:13:37.299Z,2.03
2023-04-19T05:16:07.333Z,3.40
2023-04-19T05:18:40.610Z,3.00
2023-04-19T05:21:12.147Z,2.88
2023-04-19T05:23:41.873Z,2.45
2023-04-19T05:26:14.265Z,3.03
2023-04-19T05:28:45.836Z,3.10
2023-04-19T05:31:15.725Z,2.90
2023-04-19T05:33:45.489Z,2.85
2023-04-19T05:36:15.241Z,2.50
2023-04-19T05:38:44.948Z,2.60
2023-04-19T05:41:14.652Z,2.63
2023-04-19T05:43:44.334Z,2.53
2023-04-19T05:46:14.097Z,2.28
2023-04-19T05:48:43.743Z,2.13
2023-04-19T05:51:13.703Z,2.33
2023-04-19T05:53:43.381Z,2.33
2023-04-19T05:56:13.010Z,2.30
2023-04-19T05:58:42.637Z,2.30
2023-04-19T06:01:12.435Z,2.55
2023-04-19T06:03:42.400Z,2.55
2023-04-19T06:06:12.272Z,2.58
2023-04-19T06:08:42.010Z,2.47
2023-04-19T06:11:20.165Z,2.50
2023-04-19T06:13:54.582Z,2.30
2023-04-19T06:16:24.330Z,2.13
2023-04-19T06:18:54.040Z,2.40
2023-04-19T06:21:23.648Z,2.55
2023-04-19T06:23:53.342Z,2.72
2023-04-19T06:26:23.276Z,2.88
2023-04-19T06:28:53.042Z,2.45
2023-04-19T06:31:22.723Z,2.65
2023-04-19T06:33:52.578Z,2.65
2023-04-19T06:36:22.711Z,2.50
2023-04-19T06:38:52.505Z,2.63
2023-04-19T06:41:22.193Z,2.30
2023-04-19T06:43:51.937Z,2.10
2023-04-19T06:46:21.679Z,2.22
2023-04-19T06:48:51.446Z,2.28
2023-04-19T06:51:21.159Z,2.50
2023-04-19T06:53:52.736Z,2.33
2023-04-19T06:56:40.929Z,2.30
2023-04-19T06:59:10.622Z,2.25
2023-04-19T07:01:41.357Z,2.45
2023-04-19T07:04:11.251Z,2.72
2023-04-19T07:06:41.148Z,2.33
2023-04-19T07:09:10.869Z,2.20
2023-04-19T07:11:40.672Z,2.20
2023-04-19T07:14:10.338Z,2.58
2023-04-19T07:16:39.891Z,2.92
2023-04-19T07:19:09.556Z,3.25
2023-04-19T07:21:40.742Z,3.40
2023-04-19T07:24:10.516Z,3.58
2023-04-19T07:26:40.303Z,3.17
2023-04-19T07:29:10.590Z,3.20
2023-04-19T07:31:40.445Z,3.60
2023-04-19T07:34:10.515Z,3.53
2023-04-19T07:36:40.630Z,3.22
2023-04-19T07:39:10.607Z,3.20
2023-04-19T07:41:40.667Z,3.10
2023-04-19T07:44:13.005Z,3.63
2023-04-19T07:46:45.902Z,3.80
2023-04-19T07:49:16.308Z,3.13
2023-04-19T07:51:45.927Z,4.30
2023-04-19T07:54:18.208Z,3.53
2023-04-19T07:56:50.860Z,3.42
2023-04-19T07:59:20.592Z,3.08
2023-04-19T08:01:51.124Z,3.17
2023-04-19T08:04:21.793Z,3.38
2023-04-19T08:06:51.761Z,2.90
2023-04-19T08:09:21.536Z,3.00
2023-04-19T08:11:51.273Z,3.17
2023-04-19T08:14:34.693Z,3.08
2023-04-19T08:17:23.985Z,4.03
2023-04-19T08:19:56.667Z,2.88
2023-04-19T08:22:26.305Z,3.20
2023-04-19T08:24:55.988Z,2.88
2023-04-19T08:27:28.556Z,3.40
2023-04-19T08:29:58.161Z,2.95
2023-04-19T08:32:27.808Z,3.00
2023-04-19T08:34:58.852Z,2.78
2023-04-19T08:37:28.862Z,3.03
2023-04-19T08:39:58.496Z,2.88
2023-04-19T08:42:35.489Z,3.10
2023-04-19T08:45:26.914Z,3.03
2023-04-19T08:48:01.844Z,3.83
2023-04-19T08:50:40.466Z,3.13
2023-04-19T08:53:24.609Z,3.00
2023-04-19T08:56:12.945Z,3.42
2023-04-19T08:59:03.909Z,3.40
2023-04-19T09:01:40.437Z,3.28
2023-04-19T09:04:34.448Z,3.35
2023-04-19T09:07:00.898Z,3.90
2023-04-19T09:12:04.713Z,4.00
2023-04-19T09:14:34.353Z,5.03
2023-04-19T09:17:19.069Z,4.32
2023-04-19T09:19:51.841Z,4.60
2023-04-19T09:22:21.612Z,5.07
2023-04-19T09:27:37.826Z,5.32
2023-04-19T09:30:12.758Z,4.80
2023-04-19T09:32:50.736Z,5.32
2023-04-19T09:35:20.472Z,6.22
2023-04-19T09:38:06.694Z,5.65
2023-04-19T09:40:36.867Z,5.82
2023-04-19T09:43:26.255Z,5.50
2023-04-19T09:45:56.142Z,5.63
2023-04-19T09:48:25.850Z,5.90
2023-04-19T09:51:05.816Z,5.57
2023-04-19T09:53:38.821Z,6.20
2023-04-19T09:56:08.845Z,6.10
2023-04-19T09:58:50.230Z,6.88
2023-04-19T10:01:24.268Z,6.47
2023-04-19T10:03:54.447Z,6.63
2023-04-19T10:09:00.331Z,7.00
2023-04-19T10:11:32.049Z,7.03
2023-04-19T10:14:02.585Z,7.75
2023-04-19T10:16:33.153Z,7.10
2023-04-19T10:19:03.363Z,7.90
2023-04-19T10:21:34.260Z,7.78
2023-04-19T10:24:04.133Z,7.50
2023-04-19T10:26:33.807Z,7.50
2023-04-19T10:29:03.429Z,7.57
2023-04-19T10:31:33.122Z,7.97
2023-04-19T10:34:02.844Z,7.68
2023-04-19T10:36:32.609Z,7.32
2023-04-19T10:39:02.287Z,7.78
2023-04-19T10:42:03.705Z,8.02
2023-04-19T10:44:33.331Z,7.57
2023-04-19T10:47:02.970Z,7.55
2023-04-19T10:49:32.830Z,7.97
2023-04-19T10:52:02.452Z,7.10
2023-04-19T10:54:40.441Z,7.53
2023-04-19T10:57:12.957Z,8.00
2023-04-19T10:59:45.441Z,7.32
2023-04-19T11:02:29.688Z,7.53
2023-04-19T11:05:00.353Z,8.02
2023-04-19T11:07:30.135Z,7.20
2023-04-19T11:09:59.850Z,7.20
2023-04-19T11:12:29.512Z,8.15
2023-04-19T11:15:04.464Z,8.25
2023-04-19T11:17:34.421Z,7.65
2023-04-19T11:20:15.831Z,8.82
2023-04-19T11:22:48.734Z,9.25
2023-04-19T11:25:22.514Z,9.07
2023-04-19T11:27:55.567Z,9.10
2023-04-19T11:30:35.031Z,9.60
2023-04-19T11:33:05.061Z,9.50
2023-04-19T11:35:34.793Z,9.10
2023-04-19T11:38:06.096Z,9.23
2023-04-19T11:40:35.821Z,9.02
2023-04-19T11:43:06.672Z,9.30
2023-04-19T11:45:39.579Z,10.07
2023-04-19T11:48:17.037Z,9.38
2023-04-19T11:50:47.251Z,10.00
2023-04-19T11:53:18.067Z,10.15
2023-04-19T11:55:49.185Z,10.15
2023-04-19T11:58:46.111Z,10.27
2023-04-19T12:01:16.868Z,10.55
2023-04-19T12:03:51.016Z,9.52
2023-04-19T12:06:25.577Z,10.60
2023-04-19T12:08:56.236Z,9.93
2023-04-19T12:11:44.464Z,9.88
2023-04-19T12:14:18.762Z,10.60
2023-04-19T12:16:48.690Z,10.25
2023-04-19T12:19:21.789Z,10.38
2023-04-19T12:21:51.630Z,10.82
2023-04-19T12:24:21.812Z,10.10
2023-04-19T12:26:59.134Z,10.63
2023-04-19T12:29:30.804Z,10.70
2023-04-19T12:32:00.464Z,11.27
2023-04-19T12:34:30.399Z,11.00
2023-04-19T12:37:00.209Z,10.48
2023-04-19T12:39:30.411Z,11.30
2023-04-19T12:42:02.849Z,10.27
2023-04-19T12:44:32.466Z,11.27
2023-04-19T12:47:02.165Z,11.30
2023-04-19T12:49:31.823Z,11.23
2023-04-19T12:52:01.421Z,11.38
2023-04-19T12:54:31.226Z,11.80
2023-04-19T12:57:02.840Z,11.85
2023-04-19T12:59:33.166Z,11.77
2023-04-19T13:02:03.192Z,11.80
2023-04-19T13:04:33.002Z,11.52
2023-04-19T13:07:02.781Z,12.18
2023-04-19T13:09:32.500Z,11.80
2023-04-19T13:12:02.878Z,11.35
2023-04-19T13:14:32.596Z,11.43
2023-04-19T13:17:02.374Z,10.88
2023-04-19T13:19:32.730Z,11.52
2023-04-19T13:22:02.403Z,11.73
2023-04-19T13:24:32.210Z,11.77
2023-04-19T13:27:02.043Z,11.15
2023-04-19T13:29:31.875Z,11.57
2023-04-19T13:32:01.532Z,12.00
2023-04-19T13:34:31.413Z,12.27
2023-04-19T13:37:01.210Z,12.07
2023-04-19T13:39:30.844Z,11.45
2023-04-19T13:42:00.574Z,11.50
2023-04-19T13:44:30.981Z,11.45
2023-04-19T13:47:00.659Z,11.75
2023-04-19T13:49:30.397Z,11.75
2023-04-19T13:52:00.047Z,12.05
2023-04-19T13:54:29.721Z,12.02
2023-04-19T13:56:59.696Z,12.88
2023-04-19T13:59:29.610Z,12.25
2023-04-19T14:01:59.307Z,12.38
2023-04-19T14:04:29.215Z,12.20
2023-04-19T14:06:58.910Z,12.43
2023-04-19T14:09:28.549Z,12.27
2023-04-19T14:11:58.269Z,12.02
2023-04-19T14:14:29.199Z,11.80
2023-04-19T14:17:00.493Z,12.35
2023-04-19T14:19:30.136Z,12.27
2023-04-19T14:21:59.809Z,12.10
2023-04-19T14:24:29.464Z,11.40
2023-04-19T14:27:10.254Z,12.32
2023-04-19T14:29:41.321Z,12.50
2023-04-19T14:34:46.578Z,11.25
2023-04-19T14:37:16.239Z,12.13
2023-04-19T14:39:47.479Z,11.50
2023-04-19T14:42:17.143Z,11.68
2023-04-19T14:44:47.989Z,11.95
2023-04-19T14:47:17.721Z,11.85
2023-04-19T14:49:47.459Z,12.43
2023-04-19T14:52:17.391Z,12.05
2023-04-19T14:54:47.188Z,11.50
2023-04-19T14:57:16.929Z,11.88
2023-04-19T14:59:46.630Z,12.13
2023-04-19T15:02:16.448Z,11.40
2023-04-19T15:04:46.316Z,11.30
2023-04-19T15:07:16.033Z,11.27
2023-04-19T15:09:45.717Z,11.70
2023-04-19T15:12:15.403Z,12.25
2023-04-19T15:14:45.069Z,11.55
2023-04-19T15:17:14.748Z,12.23
2023-04-19T15:19:45.818Z,11.07
2023-04-19T15:22:15.550Z,11.95
2023-04-19T15:24:45.229Z,11.40
2023-04-19T15:27:14.878Z,11.30
2023-04-19T15:29:44.497Z,11.45
2023-04-19T15:32:14.157Z,11.65
2023-04-19T15:34:43.778Z,11.48
2023-04-19T15:37:13.420Z,11.50
2023-04-19T15:39:43.143Z,11.95
2023-04-19T15:42:12.795Z,11.60
2023-04-19T15:44:43.949Z,12.15
2023-04-19T15:47:13.793Z,12.52
2023-04-19T15:49:43.512Z,12.15
2023-04-19T15:52:13.150Z,11.90
2023-04-19T15:54:42.908Z,11.85
2023-04-19T15:57:12.587Z,12.85
2023-04-19T15:59:42.217Z,12.40
2023-04-19T16:02:11.986Z,12.55
2023-04-19T16:04:41.903Z,12.55
2023-04-19T16:07:11.608Z,12.00
2023-04-19T16:09:41.339Z,12.35
2023-04-19T16:12:11.039Z,13.05
2023-04-19T16:14:40.706Z,12.90
2023-04-19T16:17:10.330Z,12.50
2023-04-19T16:19:39.967Z,12.43
2023-04-19T16:22:09.650Z,12.68
2023-04-19T16:24:39.320Z,12.00
2023-04-19T16:27:08.983Z,12.45
2023-04-19T16:29:39.949Z,12.98
2023-04-19T16:32:09.767Z,12.32
2023-04-19T16:34:39.436Z,12.30
2023-04-19T16:37:09.028Z,12.27
2023-04-19T16:39:38.652Z,13.00
2023-04-19T16:42:08.347Z,13.50
2023-04-19T16:44:37.996Z,12.88
2023-04-19T16:47:07.706Z,12.77
2023-04-19T16:49:37.359Z,13.02
2023-04-19T16:52:07.076Z,13.07
2023-04-19T16:54:37.492Z,13.40
2023-04-19T16:57:07.323Z,13.00
2023-04-19T16:59:37.063Z,12.90
2023-04-19T17:02:09.065Z,13.45
2023-04-19T17:04:39.122Z,13.55
2023-04-19T17:07:10.155Z,13.20
2023-04-19T17:09:39.838Z,14.68
2023-04-19T17:12:09.571Z,14.60
2023-04-19T17:14:39.251Z,14.07
2023-04-19T17:17:08.908Z,15.13
2023-04-19T17:19:38.935Z,13.93
2023-04-19T17:22:08.694Z,13.93
2023-04-19T17:24:38.303Z,15.07
2023-04-19T17:27:08.002Z,13.52
2023-04-19T17:29:37.799Z,13.70
2023-04-19T17:32:07.676Z,14.02
2023-04-19T17:34:37.315Z,14.80
2023-04-19T17:37:07.898Z,13.68
2023-04-19T17:39:37.606Z,15.00
2023-04-19T17:42:07.282Z,14.77
2023-04-19T17:44:37.232Z,13.93
2023-04-19T17:47:06.983Z,13.93
2023-04-19T17:49:36.696Z,13.68
2023-04-19T17:52:06.493Z,13.45
2023-04-19T17:54:36.159Z,14.75
2023-04-19T17:57:05.880Z,14.00
2023-04-19T17:59:35.553Z,14.70
2023-04-19T18:02:06.364Z,14.82
2023-04-19T18:04:37.342Z,13.52
2023-04-19T18:07:07.645Z,14.40
2023-04-19T18:09:37.283Z,13.98
2023-04-19T18:12:07.279Z,14.32
2023-04-19T18:14:37.316Z,14.02
2023-04-19T18:17:07.047Z,13.77
2023-04-19T18:19:36.732Z,14.30
2023-04-19T18:22:06.372Z,13.90
2023-04-19T18:24:36.065Z,14.30
2023-04-19T18:27:07.047Z,12.77
2023-04-19T18:29:36.812Z,13.48
2023-04-19T18:32:06.959Z,13.90
2023-04-19T18:34:36.651Z,12.52
2023-04-19T18:37:16.793Z,13.80
2023-04-19T18:39:46.752Z,12.57
2023-04-19T18:42:16.441Z,12.63
2023-04-19T18:44:53.818Z,12.77
2023-04-19T18:47:24.651Z,12.45
2023-04-19T18:50:04.598Z,12.93
2023-04-19T18:52:37.921Z,12.25
2023-04-19T18:55:08.523Z,11.75
2023-04-19T18:57:40.326Z,11.23
2023-04-19T19:00:13.425Z,12.00
2023-04-19T19:02:43.968Z,11.30
2023-04-19T19:05:15.061Z,11.82
2023-04-19T19:07:45.471Z,11.35
2023-04-19T19:10:20.976Z,11.70
2023-04-19T19:12:52.432Z,10.90
2023-04-19T19:15:22.078Z,10.90
2023-04-19T19:17:51.789Z,10.52
2023-04-19T19:20:22.042Z,10.93
2023-04-19T19:22:51.811Z,10.60
2023-04-19T19:25:21.487Z,11.23
2023-04-19T19:28:06.429Z,11.02
2023-04-19T19:30:41.103Z,9.95
2023-04-19T19:33:10.925Z,10.88
2023-04-19T19:35:40.909Z,10.80
2023-04-19T19:38:10.584Z,9.95
2023-04-19T19:41:05.429Z,10.48
2023-04-19T19:43:30.030Z,10.88
2023-04-19T19:45:59.754Z,10.13
2023-04-19T19:48:30.405Z,10.25
2023-04-19T19:53:33.999Z,10.20
2023-04-19T19:56:04.326Z,9.77
2023-04-19T19:58:49.422Z,10.43
2023-04-19T20:01:22.051Z,10.20
2023-04-19T20:03:53.045Z,9.35
2023-04-19T20:08:57.731Z,9.00
2023-04-19T20:11:27.895Z,8.50
2023-04-19T20:13:57.656Z,8.32
2023-04-19T20:16:27.411Z,8.02
2023-04-19T20:18:59.258Z,8.23
2023-04-19T20:21:29.576Z,8.35
2023-04-19T20:23:59.241Z,7.57
2023-04-19T20:26:28.940Z,7.70
2023-04-19T20:28:58.602Z,7.32
2023-04-19T20:31:28.366Z,7.80
2023-04-19T20:33:58.020Z,7.22
2023-04-19T20:36:29.142Z,7.50
2023-04-19T20:39:00.217Z,7.28
2023-04-19T20:41:29.922Z,6.90
2023-04-19T20:44:01.263Z,7.25
2023-04-19T20:46:30.990Z,7.78
2023-04-19T20:49:00.786Z,7.70
2023-04-19T20:51:30.471Z,7.50
2023-04-19T20:54:00.366Z,7.40
2023-04-19T20:56:30.066Z,7.22
2023-04-19T20:58:59.758Z,7.47
2023-04-19T21:01:29.536Z,8.00
2023-04-19T21:03:59.479Z,7.28
2023-04-19T21:06:29.338Z,7.93
2023-04-19T21:09:00.797Z,7.40
2023-04-19T21:11:30.486Z,8.32
2023-04-19T21:14:00.191Z,8.13
2023-04-19T21:16:29.853Z,8.05
2023-04-19T21:18:59.589Z,7.90
2023-04-19T21:21:30.554Z,7.63
2023-04-19T21:24:01.911Z,9.43
2023-04-19T21:26:31.713Z,8.57
2023-04-19T21:29:01.362Z,8.55
2023-04-19T21:31:31.033Z,7.97
2023-04-19T21:34:00.704Z,8.10
2023-04-19T21:36:30.563Z,8.18
2023-04-19T21:39:00.202Z,8.48
2023-04-19T21:41:29.814Z,8.30
2023-04-19T21:43:59.395Z,9.15
2023-04-19T21:46:29.032Z,8.90
2023-04-19T21:48:58.661Z,8.98
2023-04-19T21:51:29.151Z,8.50
2023-04-19T21:53:58.844Z,8.40
2023-04-19T21:56:28.553Z,8.90
2023-04-19T21:58:58.255Z,8.93
2023-04-19T22:01:29.170Z,8.48
2023-04-19T22:04:00.297Z,9.75
2023-04-19T22:06:30.005Z,8.90
2023-04-19T22:09:00.931Z,8.30
2023-04-19T22:11:35.448Z,8.77
2023-04-19T22:14:05.283Z,8.65
2023-04-19T22:16:35.094Z,8.82
2023-04-19T22:19:05.066Z,9.10
2023-04-19T22:21:34.685Z,8.55
2023-04-19T22:24:05.205Z,7.95
2023-04-19T22:26:35.973Z,7.97
2023-04-19T22:29:05.665Z,8.40
2023-04-19T22:31:35.423Z,8.95
2023-04-19T22:34:05.083Z,8.32
2023-04-19T22:36:34.712Z,7.80
2023-04-19T22:39:04.690Z,7.07
2023-04-19T22:41:35.400Z,6.72
2023-04-19T22:44:05.357Z,6.53
2023-04-19T22:46:35.107Z,7.07
2023-04-19T22:49:05.009Z,6.80
2023-04-19T22:51:35.597Z,7.35
2023-04-19T22:54:05.854Z,6.63
2023-04-19T22:56:35.487Z,7.13
2023-04-19T22:59:05.150Z,7.03
2023-04-19T23:01:34.892Z,6.47
2023-04-19T23:04:04.654Z,6.72
2023-04-19T23:06:34.562Z,6.63
2023-04-19T23:09:04.485Z,6.72
2023-04-19T23:11:34.134Z,7.13
2023-04-19T23:14:04.240Z,6.88
2023-04-19T23:16:34.890Z,7.40
2023-04-19T23:19:04.587Z,6.75
2023-04-19T23:21:34.296Z,6.90
2023-04-19T23:24:04.002Z,7.70
2023-04-19T23:26:33.670Z,7.80
2023-04-19T23:29:03.311Z,7.70
2023-04-19T23:31:35.743Z,8.43
2023-04-19T23:34:05.495Z,8.30
2023-04-19T23:36:35.186Z,8.88
2023-04-19T23:39:04.978Z,9.07
2023-04-19T23:41:34.640Z,9.38
2023-04-19T23:44:04.336Z,8.90
2023-04-19T23:46:33.972Z,9.98
2023-04-19T23:49:03.638Z,9.48
2023-04-19T23:51:34.396Z,10.07
2023-04-19T23:54:04.020Z,10.48
2023-04-19T23:56:33.670Z,9.98
2023-04-19T23:59:03.327Z,11.32
